sensor_id;sensor_type;location;lat;lon;timestamp;P1;durP1;ratioP1;P2;durP2;ratioP2
36385;SDS011;24125;47.482;8.770;2023-02-28T00:01:24;6.82;;;3.75;;
36385;SDS011;24125;47.482;8.770;2023-02-28T00:03:58;5.47;;;3.55;;
36385;SDS011;24125;47.482;8.770;2023-02-28T00:06:31;5.57;;;2.92;;
36385;SDS011;24125;47.482;8.770;2023-02-28T00:09:04;5.97;;;3.72;;
36385;SDS011;24125;47.482;8.770;2023-02-28T00:11:37;6.90;;;3.85;;
36385;SDS011;24125;47.482;8.770;2023-02-28T00:14:11;6.28;;;3.80;;
36385;SDS011;24125;47.482;8.770;2023-02-28T00:16:44;5.45;;;3.67;;
36385;SDS011;24125;47.482;8.770;2023-02-28T00:19:17;5.90;;;3.42;;
36385;SDS011;24125;47.482;8.770;2023-02-28T00:21:50;6.32;;;3.63;;
36385;SDS011;24125;47.482;8.770;2023-02-28T00:24:23;4.20;;;3.05;;
36385;SDS011;24125;47.482;8.770;2023-02-28T00:26:56;4.80;;;3.40;;
36385;SDS011;24125;47.482;8.770;2023-02-28T00:29:31;4.97;;;3.25;;
36385;SDS011;24125;47.482;8.770;2023-02-28T00:32:04;6.13;;;3.63;;
36385;SDS011;24125;47.482;8.770;2023-02-28T00:34:38;6.95;;;3.63;;
36385;SDS011;24125;47.482;8.770;2023-02-28T00:37:11;6.28;;;3.88;;
36385;SDS011;24125;47.482;8.770;2023-02-28T00:39:44;5.40;;;3.70;;
36385;SDS011;24125;47.482;8.770;2023-02-28T00:42:17;7.05;;;3.92;;
36385;SDS011;24125;47.482;8.770;2023-02-28T00:44:52;6.38;;;3.60;;
36385;SDS011;24125;47.482;8.770;2023-02-28T00:47:25;7.00;;;3.90;;
36385;SDS011;24125;47.482;8.770;2023-02-28T00:49:58;5.00;;;3.65;;
36385;SDS011;24125;47.482;8.770;2023-02-28T00:52:32;5.60;;;3.90;;
36385;SDS011;24125;47.482;8.770;2023-02-28T00:55:05;5.50;;;4.13;;
36385;SDS011;24125;47.482;8.770;2023-02-28T00:57:38;5.63;;;3.90;;
36385;SDS011;24125;47.482;8.770;2023-02-28T01:00:13;7.50;;;3.97;;
36385;SDS011;24125;47.482;8.770;2023-02-28T01:02:47;5.95;;;3.33;;
36385;SDS011;24125;47.482;8.770;2023-02-28T01:05:20;6.13;;;4.25;;
36385;SDS011;24125;47.482;8.770;2023-02-28T01:07:53;7.82;;;4.63;;
36385;SDS011;24125;47.482;8.770;2023-02-28T01:10:26;6.07;;;3.88;;
36385;SDS011;24125;47.482;8.770;2023-02-28T01:13:02;6.15;;;3.90;;
36385;SDS011;24125;47.482;8.770;2023-02-28T01:15:45;6.35;;;4.00;;
36385;SDS011;24125;47.482;8.770;2023-02-28T01:18:22;5.78;;;3.80;;
36385;SDS011;24125;47.482;8.770;2023-02-28T01:20:55;6.57;;;3.42;;
36385;SDS011;24125;47.482;8.770;2023-02-28T01:23:28;6.30;;;4.20;;
36385;SDS011;24125;47.482;8.770;2023-02-28T01:26:03;7.13;;;4.00;;
36385;SDS011;24125;47.482;8.770;2023-02-28T01:28:37;7.57;;;4.45;;
36385;SDS011;24125;47.482;8.770;2023-02-28T01:31:11;5.57;;;3.97;;
36385;SDS011;24125;47.482;8.770;2023-02-28T01:33:45;5.63;;;3.67;;
36385;SDS011;24125;47.482;8.770;2023-02-28T01:36:19;6.35;;;4.20;;
36385;SDS011;24125;47.482;8.770;2023-02-28T01:38:53;7.22;;;4.75;;
36385;SDS011;24125;47.482;8.770;2023-02-28T01:41:27;6.57;;;4.25;;
36385;SDS011;24125;47.482;8.770;2023-02-28T01:44:03;6.30;;;4.07;;
36385;SDS011;24125;47.482;8.770;2023-02-28T01:46:39;6.00;;;4.10;;
36385;SDS011;24125;47.482;8.770;2023-02-28T01:49:13;5.75;;;4.25;;
36385;SDS011;24125;47.482;8.770;2023-02-28T01:51:49;5.93;;;4.28;;
36385;SDS011;24125;47.482;8.770;2023-02-28T01:54:27;6.20;;;4.22;;
36385;SDS011;24125;47.482;8.770;2023-02-28T01:57:04;10.13;;;4.63;;
36385;SDS011;24125;47.482;8.770;2023-02-28T01:59:42;6.35;;;3.95;;
36385;SDS011;24125;47.482;8.770;2023-02-28T02:02:22;6.43;;;4.28;;
36385;SDS011;24125;47.482;8.770;2023-02-28T02:04:57;4.72;;;3.92;;
36385;SDS011;24125;47.482;8.770;2023-02-28T02:07:34;7.82;;;4.05;;
36385;SDS011;24125;47.482;8.770;2023-02-28T02:10:11;6.88;;;4.15;;
36385;SDS011;24125;47.482;8.770;2023-02-28T02:12:53;7.13;;;4.38;;
36385;SDS011;24125;47.482;8.770;2023-02-28T02:15:39;5.85;;;4.20;;
36385;SDS011;24125;47.482;8.770;2023-02-28T02:18:23;7.20;;;4.00;;
36385;SDS011;24125;47.482;8.770;2023-02-28T02:21:09;5.82;;;4.50;;
36385;SDS011;24125;47.482;8.770;2023-02-28T02:27:10;5.50;;;3.50;;
36385;SDS011;24125;47.482;8.770;2023-02-28T02:36:11;5.50;;;4.15;;
36385;SDS011;24125;47.482;8.770;2023-02-28T02:38:49;5.40;;;4.00;;
36385;SDS011;24125;47.482;8.770;2023-02-28T02:41:28;6.40;;;4.30;;
36385;SDS011;24125;47.482;8.770;2023-02-28T02:44:10;4.70;;;3.55;;
36385;SDS011;24125;47.482;8.770;2023-02-28T02:46:51;5.43;;;4.05;;
36385;SDS011;24125;47.482;8.770;2023-02-28T02:49:28;5.75;;;4.00;;
36385;SDS011;24125;47.482;8.770;2023-02-28T02:52:06;6.07;;;4.20;;
36385;SDS011;24125;47.482;8.770;2023-02-28T02:54:43;4.55;;;3.92;;
36385;SDS011;24125;47.482;8.770;2023-02-28T02:57:21;5.82;;;4.03;;
36385;SDS011;24125;47.482;8.770;2023-02-28T02:59:58;5.38;;;4.00;;
36385;SDS011;24125;47.482;8.770;2023-02-28T03:02:33;5.05;;;3.83;;
36385;SDS011;24125;47.482;8.770;2023-02-28T03:05:12;5.78;;;3.92;;
36385;SDS011;24125;47.482;8.770;2023-02-28T03:07:53;6.55;;;4.10;;
36385;SDS011;24125;47.482;8.770;2023-02-28T03:10:30;5.70;;;4.05;;
36385;SDS011;24125;47.482;8.770;2023-02-28T03:13:16;5.10;;;3.55;;
36385;SDS011;24125;47.482;8.770;2023-02-28T03:16:11;6.10;;;3.47;;
36385;SDS011;24125;47.482;8.770;2023-02-28T03:18:58;6.63;;;3.88;;
36385;SDS011;24125;47.482;8.770;2023-02-28T03:21:43;6.05;;;4.07;;
36385;SDS011;24125;47.482;8.770;2023-02-28T03:24:24;6.53;;;4.25;;
36385;SDS011;24125;47.482;8.770;2023-02-28T03:27:05;5.45;;;4.20;;
36385;SDS011;24125;47.482;8.770;2023-02-28T03:29:42;6.22;;;3.97;;
36385;SDS011;24125;47.482;8.770;2023-02-28T03:32:21;5.53;;;4.13;;
36385;SDS011;24125;47.482;8.770;2023-02-28T03:35:01;5.63;;;3.88;;
36385;SDS011;24125;47.482;8.770;2023-02-28T03:37:40;4.97;;;3.85;;
36385;SDS011;24125;47.482;8.770;2023-02-28T03:40:19;6.50;;;3.67;;
36385;SDS011;24125;47.482;8.770;2023-02-28T03:42:57;5.95;;;3.92;;
36385;SDS011;24125;47.482;8.770;2023-02-28T03:45:34;5.30;;;4.28;;
36385;SDS011;24125;47.482;8.770;2023-02-28T03:48:11;5.65;;;3.75;;
36385;SDS011;24125;47.482;8.770;2023-02-28T03:50:47;7.50;;;4.00;;
36385;SDS011;24125;47.482;8.770;2023-02-28T03:53:27;5.15;;;4.03;;
36385;SDS011;24125;47.482;8.770;2023-02-28T03:56:05;5.50;;;3.85;;
36385;SDS011;24125;47.482;8.770;2023-02-28T03:58:45;6.32;;;3.80;;
36385;SDS011;24125;47.482;8.770;2023-02-28T04:01:25;6.10;;;3.97;;
36385;SDS011;24125;47.482;8.770;2023-02-28T04:04:02;5.60;;;4.30;;
36385;SDS011;24125;47.482;8.770;2023-02-28T04:06:36;6.75;;;4.45;;
36385;SDS011;24125;47.482;8.770;2023-02-28T04:09:10;6.03;;;4.50;;
36385;SDS011;24125;47.482;8.770;2023-02-28T04:11:46;5.35;;;3.88;;
36385;SDS011;24125;47.482;8.770;2023-02-28T04:14:23;6.35;;;4.03;;
36385;SDS011;24125;47.482;8.770;2023-02-28T04:16:57;6.35;;;4.10;;
36385;SDS011;24125;47.482;8.770;2023-02-28T04:19:30;5.68;;;3.97;;
36385;SDS011;24125;47.482;8.770;2023-02-28T04:22:03;12.10;;;4.57;;
36385;SDS011;24125;47.482;8.770;2023-02-28T04:24:36;4.43;;;3.38;;
36385;SDS011;24125;47.482;8.770;2023-02-28T04:27:14;5.38;;;3.60;;
36385;SDS011;24125;47.482;8.770;2023-02-28T04:29:47;6.38;;;4.25;;
36385;SDS011;24125;47.482;8.770;2023-02-28T04:32:20;5.90;;;3.70;;
36385;SDS011;24125;47.482;8.770;2023-02-28T04:34:53;5.72;;;3.83;;
36385;SDS011;24125;47.482;8.770;2023-02-28T04:37:27;6.20;;;3.47;;
36385;SDS011;24125;47.482;8.770;2023-02-28T04:40:00;4.65;;;3.40;;
36385;SDS011;24125;47.482;8.770;2023-02-28T04:42:35;5.38;;;3.70;;
36385;SDS011;24125;47.482;8.770;2023-02-28T04:45:08;5.93;;;4.13;;
36385;SDS011;24125;47.482;8.770;2023-02-28T04:47:42;5.15;;;3.60;;
36385;SDS011;24125;47.482;8.770;2023-02-28T04:50:15;4.80;;;4.03;;
36385;SDS011;24125;47.482;8.770;2023-02-28T04:52:48;5.03;;;3.58;;
36385;SDS011;24125;47.482;8.770;2023-02-28T04:55:21;5.03;;;3.17;;
36385;SDS011;24125;47.482;8.770;2023-02-28T04:57:56;4.95;;;3.53;;
36385;SDS011;24125;47.482;8.770;2023-02-28T05:00:29;5.35;;;3.55;;
36385;SDS011;24125;47.482;8.770;2023-02-28T05:03:02;5.32;;;3.65;;
36385;SDS011;24125;47.482;8.770;2023-02-28T05:05:35;5.88;;;3.50;;
36385;SDS011;24125;47.482;8.770;2023-02-28T05:08:08;4.93;;;3.75;;
36385;SDS011;24125;47.482;8.770;2023-02-28T05:10:41;5.13;;;3.60;;
36385;SDS011;24125;47.482;8.770;2023-02-28T05:13:16;5.80;;;3.88;;
36385;SDS011;24125;47.482;8.770;2023-02-28T05:15:49;4.18;;;3.38;;
36385;SDS011;24125;47.482;8.770;2023-02-28T05:18:22;5.38;;;3.92;;
36385;SDS011;24125;47.482;8.770;2023-02-28T05:20:55;5.40;;;3.50;;
36385;SDS011;24125;47.482;8.770;2023-02-28T05:23:28;6.60;;;3.47;;
36385;SDS011;24125;47.482;8.770;2023-02-28T05:26:01;5.45;;;3.58;;
36385;SDS011;24125;47.482;8.770;2023-02-28T05:28:36;4.43;;;3.40;;
36385;SDS011;24125;47.482;8.770;2023-02-28T05:31:09;4.40;;;3.53;;
36385;SDS011;24125;47.482;8.770;2023-02-28T05:33:43;5.25;;;3.75;;
36385;SDS011;24125;47.482;8.770;2023-02-28T05:36:16;4.70;;;3.58;;
36385;SDS011;24125;47.482;8.770;2023-02-28T05:38:49;5.90;;;3.92;;
36385;SDS011;24125;47.482;8.770;2023-02-28T05:41:23;4.82;;;3.53;;
36385;SDS011;24125;47.482;8.770;2023-02-28T05:43:59;6.40;;;3.55;;
36385;SDS011;24125;47.482;8.770;2023-02-28T05:46:33;6.10;;;4.22;;
36385;SDS011;24125;47.482;8.770;2023-02-28T05:49:07;5.47;;;3.75;;
36385;SDS011;24125;47.482;8.770;2023-02-28T05:51:40;6.28;;;4.40;;
36385;SDS011;24125;47.482;8.770;2023-02-28T05:54:13;4.75;;;3.75;;
36385;SDS011;24125;47.482;8.770;2023-02-28T05:56:46;4.85;;;4.00;;
36385;SDS011;24125;47.482;8.770;2023-02-28T05:59:21;6.03;;;4.05;;
36385;SDS011;24125;47.482;8.770;2023-02-28T06:01:54;7.93;;;4.07;;
36385;SDS011;24125;47.482;8.770;2023-02-28T06:04:28;5.88;;;4.15;;
36385;SDS011;24125;47.482;8.770;2023-02-28T06:07:02;6.70;;;4.30;;
36385;SDS011;24125;47.482;8.770;2023-02-28T06:09:35;5.70;;;4.10;;
36385;SDS011;24125;47.482;8.770;2023-02-28T06:12:09;6.18;;;3.88;;
36385;SDS011;24125;47.482;8.770;2023-02-28T06:14:44;7.30;;;4.30;;
36385;SDS011;24125;47.482;8.770;2023-02-28T06:17:17;6.28;;;4.50;;
36385;SDS011;24125;47.482;8.770;2023-02-28T06:19:50;6.95;;;4.13;;
36385;SDS011;24125;47.482;8.770;2023-02-28T06:22:23;5.68;;;4.03;;
36385;SDS011;24125;47.482;8.770;2023-02-28T06:24:56;5.75;;;4.25;;
36385;SDS011;24125;47.482;8.770;2023-02-28T06:27:30;8.48;;;4.28;;
36385;SDS011;24125;47.482;8.770;2023-02-28T06:30:04;5.82;;;4.15;;
36385;SDS011;24125;47.482;8.770;2023-02-28T06:32:38;7.70;;;4.18;;
36385;SDS011;24125;47.482;8.770;2023-02-28T06:35:11;5.43;;;4.15;;
36385;SDS011;24125;47.482;8.770;2023-02-28T06:37:45;7.10;;;4.18;;
36385;SDS011;24125;47.482;8.770;2023-02-28T06:40:18;7.30;;;4.65;;
36385;SDS011;24125;47.482;8.770;2023-02-28T06:42:51;8.93;;;4.28;;
36385;SDS011;24125;47.482;8.770;2023-02-28T06:45:26;4.85;;;4.00;;
36385;SDS011;24125;47.482;8.770;2023-02-28T06:47:59;5.85;;;4.47;;
36385;SDS011;24125;47.482;8.770;2023-02-28T06:50:32;5.85;;;4.60;;
36385;SDS011;24125;47.482;8.770;2023-02-28T06:53:05;5.97;;;4.72;;
36385;SDS011;24125;47.482;8.770;2023-02-28T06:55:38;6.15;;;4.75;;
36385;SDS011;24125;47.482;8.770;2023-02-28T06:58:11;5.68;;;4.65;;
36385;SDS011;24125;47.482;8.770;2023-02-28T07:00:51;6.47;;;4.57;;
36385;SDS011;24125;47.482;8.770;2023-02-28T07:03:24;6.47;;;4.75;;
36385;SDS011;24125;47.482;8.770;2023-02-28T07:05:58;6.05;;;4.60;;
36385;SDS011;24125;47.482;8.770;2023-02-28T07:08:31;7.03;;;4.72;;
36385;SDS011;24125;47.482;8.770;2023-02-28T07:11:04;8.45;;;6.35;;
36385;SDS011;24125;47.482;8.770;2023-02-28T07:13:37;8.55;;;5.43;;
36385;SDS011;24125;47.482;8.770;2023-02-28T07:16:12;8.25;;;5.90;;
36385;SDS011;24125;47.482;8.770;2023-02-28T07:18:47;7.03;;;4.88;;
36385;SDS011;24125;47.482;8.770;2023-02-28T07:21:20;7.95;;;5.72;;
36385;SDS011;24125;47.482;8.770;2023-02-28T07:23:53;8.23;;;5.43;;
36385;SDS011;24125;47.482;8.770;2023-02-28T07:26:26;6.95;;;5.38;;
36385;SDS011;24125;47.482;8.770;2023-02-28T07:28:59;7.43;;;4.93;;
36385;SDS011;24125;47.482;8.770;2023-02-28T07:31:34;8.88;;;5.15;;
36385;SDS011;24125;47.482;8.770;2023-02-28T07:34:07;6.68;;;4.40;;
36385;SDS011;24125;47.482;8.770;2023-02-28T07:36:40;6.88;;;4.68;;
36385;SDS011;24125;47.482;8.770;2023-02-28T07:39:13;7.65;;;5.10;;
36385;SDS011;24125;47.482;8.770;2023-02-28T07:41:46;8.63;;;6.07;;
36385;SDS011;24125;47.482;8.770;2023-02-28T07:44:19;7.72;;;5.75;;
36385;SDS011;24125;47.482;8.770;2023-02-28T07:46:54;7.15;;;5.30;;
36385;SDS011;24125;47.482;8.770;2023-02-28T07:49:27;8.27;;;5.72;;
36385;SDS011;24125;47.482;8.770;2023-02-28T07:52:00;8.73;;;5.60;;
36385;SDS011;24125;47.482;8.770;2023-02-28T07:54:33;8.10;;;5.65;;
36385;SDS011;24125;47.482;8.770;2023-02-28T07:57:06;8.52;;;5.60;;
36385;SDS011;24125;47.482;8.770;2023-02-28T07:59:39;8.13;;;5.63;;
36385;SDS011;24125;47.482;8.770;2023-02-28T08:02:17;11.10;;;6.13;;
36385;SDS011;24125;47.482;8.770;2023-02-28T08:04:50;9.73;;;5.80;;
36385;SDS011;24125;47.482;8.770;2023-02-28T08:07:23;6.15;;;4.93;;
36385;SDS011;24125;47.482;8.770;2023-02-28T08:09:56;9.45;;;5.40;;
36385;SDS011;24125;47.482;8.770;2023-02-28T08:12:30;6.53;;;5.07;;
36385;SDS011;24125;47.482;8.770;2023-02-28T08:15:03;8.05;;;5.35;;
36385;SDS011;24125;47.482;8.770;2023-02-28T08:17:38;8.25;;;5.43;;
36385;SDS011;24125;47.482;8.770;2023-02-28T08:20:11;9.40;;;5.78;;
36385;SDS011;24125;47.482;8.770;2023-02-28T08:22:45;8.52;;;6.07;;
36385;SDS011;24125;47.482;8.770;2023-02-28T08:25:17;9.10;;;5.80;;
36385;SDS011;24125;47.482;8.770;2023-02-28T08:27:51;8.18;;;5.07;;
36385;SDS011;24125;47.482;8.770;2023-02-28T08:30:24;7.22;;;5.68;;
36385;SDS011;24125;47.482;8.770;2023-02-28T08:32:58;7.22;;;5.10;;
36385;SDS011;24125;47.482;8.770;2023-02-28T08:35:35;6.88;;;5.47;;
36385;SDS011;24125;47.482;8.770;2023-02-28T08:38:08;8.43;;;5.53;;
36385;SDS011;24125;47.482;8.770;2023-02-28T08:40:41;7.25;;;5.35;;
36385;SDS011;24125;47.482;8.770;2023-02-28T08:43:15;8.23;;;5.68;;
36385;SDS011;24125;47.482;8.770;2023-02-28T08:45:50;7.68;;;5.97;;
36385;SDS011;24125;47.482;8.770;2023-02-28T08:48:26;6.63;;;5.70;;
36385;SDS011;24125;47.482;8.770;2023-02-28T08:51:01;6.47;;;5.22;;
36385;SDS011;24125;47.482;8.770;2023-02-28T08:53:39;7.68;;;4.97;;
36385;SDS011;24125;47.482;8.770;2023-02-28T08:56:15;9.00;;;6.18;;
36385;SDS011;24125;47.482;8.770;2023-02-28T08:58:49;7.60;;;5.72;;
36385;SDS011;24125;47.482;8.770;2023-02-28T09:01:23;8.07;;;6.07;;
36385;SDS011;24125;47.482;8.770;2023-02-28T09:04:00;8.30;;;5.75;;
36385;SDS011;24125;47.482;8.770;2023-02-28T09:06:34;7.28;;;5.43;;
36385;SDS011;24125;47.482;8.770;2023-02-28T09:09:10;8.02;;;5.72;;
36385;SDS011;24125;47.482;8.770;2023-02-28T09:11:43;8.60;;;5.38;;
36385;SDS011;24125;47.482;8.770;2023-02-28T09:14:16;7.25;;;5.43;;
36385;SDS011;24125;47.482;8.770;2023-02-28T09:16:49;8.63;;;5.95;;
36385;SDS011;24125;47.482;8.770;2023-02-28T09:19:24;8.40;;;5.38;;
36385;SDS011;24125;47.482;8.770;2023-02-28T09:21:57;7.63;;;5.65;;
36385;SDS011;24125;47.482;8.770;2023-02-28T09:24:30;7.88;;;5.88;;
36385;SDS011;24125;47.482;8.770;2023-02-28T09:27:04;7.85;;;5.38;;
36385;SDS011;24125;47.482;8.770;2023-02-28T09:29:38;7.45;;;5.10;;
36385;SDS011;24125;47.482;8.770;2023-02-28T09:32:12;9.25;;;6.30;;
36385;SDS011;24125;47.482;8.770;2023-02-28T09:34:47;7.88;;;5.88;;
36385;SDS011;24125;47.482;8.770;2023-02-28T09:37:20;12.75;;;6.07;;
36385;SDS011;24125;47.482;8.770;2023-02-28T09:39:53;8.43;;;6.00;;
36385;SDS011;24125;47.482;8.770;2023-02-28T09:42:28;9.15;;;6.07;;
36385;SDS011;24125;47.482;8.770;2023-02-28T09:45:06;8.65;;;6.60;;
36385;SDS011;24125;47.482;8.770;2023-02-28T09:47:48;9.20;;;6.28;;
36385;SDS011;24125;47.482;8.770;2023-02-28T09:50:30;7.85;;;5.85;;
36385;SDS011;24125;47.482;8.770;2023-02-28T09:53:16;9.45;;;6.63;;
36385;SDS011;24125;47.482;8.770;2023-02-28T09:55:55;10.07;;;5.95;;
36385;SDS011;24125;47.482;8.770;2023-02-28T09:58:33;9.52;;;6.10;;
36385;SDS011;24125;47.482;8.770;2023-02-28T10:01:18;9.30;;;6.05;;
36385;SDS011;24125;47.482;8.770;2023-02-28T10:03:55;9.85;;;6.45;;
36385;SDS011;24125;47.482;8.770;2023-02-28T10:06:35;9.23;;;5.82;;
36385;SDS011;24125;47.482;8.770;2023-02-28T10:09:16;8.18;;;5.95;;
36385;SDS011;24125;47.482;8.770;2023-02-28T10:11:54;8.73;;;5.97;;
36385;SDS011;24125;47.482;8.770;2023-02-28T10:14:33;9.60;;;6.50;;
36385;SDS011;24125;47.482;8.770;2023-02-28T10:17:08;9.32;;;6.30;;
36385;SDS011;24125;47.482;8.770;2023-02-28T10:19:47;7.80;;;5.97;;
36385;SDS011;24125;47.482;8.770;2023-02-28T10:22:34;9.02;;;6.03;;
36385;SDS011;24125;47.482;8.770;2023-02-28T10:25:16;9.57;;;6.47;;
36385;SDS011;24125;47.482;8.770;2023-02-28T10:27:53;8.38;;;5.93;;
36385;SDS011;24125;47.482;8.770;2023-02-28T10:30:30;9.55;;;6.35;;
36385;SDS011;24125;47.482;8.770;2023-02-28T10:33:03;9.25;;;5.80;;
36385;SDS011;24125;47.482;8.770;2023-02-28T10:35:37;8.93;;;5.93;;
36385;SDS011;24125;47.482;8.770;2023-02-28T10:38:14;8.93;;;6.30;;
36385;SDS011;24125;47.482;8.770;2023-02-28T10:40:49;8.88;;;6.22;;
36385;SDS011;24125;47.482;8.770;2023-02-28T10:43:23;10.68;;;6.53;;
36385;SDS011;24125;47.482;8.770;2023-02-28T10:46:01;8.90;;;6.45;;
36385;SDS011;24125;47.482;8.770;2023-02-28T10:48:37;8.48;;;6.20;;
36385;SDS011;24125;47.482;8.770;2023-02-28T10:51:12;8.43;;;6.20;;
36385;SDS011;24125;47.482;8.770;2023-02-28T10:53:49;8.63;;;5.90;;
36385;SDS011;24125;47.482;8.770;2023-02-28T10:56:33;9.68;;;6.32;;
36385;SDS011;24125;47.482;8.770;2023-02-28T10:59:22;10.43;;;6.68;;
36385;SDS011;24125;47.482;8.770;2023-02-28T11:02:00;9.15;;;6.40;;
36385;SDS011;24125;47.482;8.770;2023-02-28T11:04:35;9.10;;;6.63;;
36385;SDS011;24125;47.482;8.770;2023-02-28T11:07:16;9.52;;;6.00;;
36385;SDS011;24125;47.482;8.770;2023-02-28T11:09:56;9.93;;;6.93;;
36385;SDS011;24125;47.482;8.770;2023-02-28T11:12:31;9.70;;;6.60;;
